Terminal Aerodrome Forecast
Issued by NWS

Home | Current Version | Previous Version | Text Only | Print | Product List | Glossary On
Versions: 1 2 3 4 5 6 7 8 9 10 11 12 13 14 15 16 17 18 19 20 21 22 23 24 25 26 27 28 29 30 31 32 33 34 35 36 37 38 39 40
129
FTAK31 PANC 250101 AAA
TAFACD
TAF AMD
PACD 250101Z 2501/2524 25015G25KT P6SM VCSH SCT020 BKN040
      TEMPO 2501/2503 23011KT 3SM SHRA BR BKN015
     FM252100 25017KT P6SM -SHRA SCT025 BKN050=

USA.gov is the U.S. government's official web portal to all federal, state and local government web resources and services.